»·PEaware :: N2RF KLAS-KSAN

N2RF :: KLAS-KSAN

FLIGHT INFORMATION

Flight Status: Arrived
Operator: Privately registered:
United States
More flights under this callsign
Pilot: Max W. (2591)
Aircraft: Boeing 747-8
(B748)
More flights by this aircraft type
Origin: KLAS McCarran Intl
United States
Destination: KSAN San Diego Intl-Lindbergh
United States
More flights between these airports :: More routes between these airports
Route: +BOACH8 CMPOE LUCKI1
File this flight plan on PilotEdge
Remarks: HAVE A WAIVER FOR NO PPD! IN MSFS THX!
Altitude:
(Current/Filed)
28,000ft
Speed:
(Current/Filed)
490kts
Departed: 07-Sep-20 07:05 PM
Arrived: 07-Sep-20 07:52 PM
Distance/Time
Traveled:
225nm/0:46
Distance/Time
To Go:
Arrived

Flight Plot

Page will automatically refresh every two minutes.

Flight plan parsing failed; only flown route is shown


Map Options




Map Legend


Flown Route
Filed Route
Departure Airport
Arrival Airport
Navaid (VOR, NDB)
Fix

Horizontal Profiles

Position Reports

Time Latitude Longitude Heading Altitude Ground
Speed
07-Sep-20 18:44 36.081939 -115.132136 269 2078ft 0kts
07-Sep-20 18:45 36.081939 -115.132136 269 2078ft 0kts
07-Sep-20 18:46 36.081939 -115.132136 269 2078ft 0kts
07-Sep-20 18:47 36.081939 -115.132136 269 2078ft 0kts
07-Sep-20 18:48 36.081939 -115.132136 269 2078ft 0kts
07-Sep-20 18:49 36.081939 -115.132136 269 2078ft 0kts
07-Sep-20 18:50 36.081939 -115.132136 269 2078ft 0kts
07-Sep-20 18:51 36.081939 -115.132136 269 2078ft 0kts
07-Sep-20 18:52 36.081939 -115.132136 269 2078ft 0kts
07-Sep-20 18:53 36.081939 -115.132136 269 2078ft 0kts
07-Sep-20 18:54 36.081939 -115.132136 269 2078ft 0kts
07-Sep-20 18:55 36.081939 -115.132136 269 2078ft 0kts
07-Sep-20 18:56 36.081939 -115.132136 269 2078ft 0kts
07-Sep-20 18:57 36.081939 -115.132136 269 2078ft 0kts
07-Sep-20 18:58 36.081939 -115.132136 269 2078ft 0kts
07-Sep-20 18:59 36.081017 -115.132834 195 2085ft 18kts
07-Sep-20 19:00 36.078347 -115.130415 91 2076ft 31kts
07-Sep-20 19:01 36.078267 -115.123179 93 2050ft 28kts
07-Sep-20 19:02 36.077695 -115.121766 133 2046ft 0kts
07-Sep-20 19:03 36.076505 -115.121748 252 2048ft 6kts
07-Sep-20 19:04 36.076302 -115.165747 269 2656ft 213kts
07-Sep-20 19:05 36.076546 -115.244343 268 5386ft 257kts
07-Sep-20 19:06 36.021317 -115.292402 178 8136ft 252kts
07-Sep-20 19:07 35.941703 -115.293590 173 7710ft 284kts
07-Sep-20 19:08 35.863429 -115.281807 174 10845ft 279kts
07-Sep-20 19:09 35.778004 -115.274547 178 13476ft 359kts
07-Sep-20 19:10 35.678423 -115.274037 185 17496ft 358kts
07-Sep-20 19:11 35.581587 -115.291806 183 20825ft 361kts
07-Sep-20 19:12 35.479181 -115.297089 184 23982ft 346kts
07-Sep-20 19:13 35.373406 -115.304774 182 24323ft 412kts
07-Sep-20 19:14 35.262996 -115.311113 183 27548ft 398kts
07-Sep-20 19:15 35.144558 -115.322140 184 28234ft 452kts
07-Sep-20 19:16 35.017700 -115.339248 187 27828ft 449kts
07-Sep-20 19:17 34.893175 -115.359100 188 28047ft 448kts
07-Sep-20 19:18 34.768398 -115.376310 186 28080ft 446kts
07-Sep-20 19:19 34.643943 -115.398947 194 27963ft 448kts
07-Sep-20 19:20 34.524045 -115.444692 197 27472ft 454kts
07-Sep-20 19:21 34.404766 -115.488562 196 27905ft 445kts
07-Sep-20 19:22 34.283236 -115.528089 194 27740ft 455kts
07-Sep-20 19:23 34.161741 -115.564878 195 27838ft 449kts
07-Sep-20 19:24 34.041129 -115.603526 194 28241ft 451kts
07-Sep-20 19:25 33.919358 -115.643654 196 27799ft 440kts
07-Sep-20 19:27 33.799793 -115.686785 197 28334ft 438kts
07-Sep-20 19:28 33.678381 -115.725411 193 27612ft 453kts
07-Sep-20 19:29 33.555093 -115.754867 189 27606ft 448kts
07-Sep-20 19:30 33.431930 -115.772696 185 28046ft 446kts
07-Sep-20 19:31 33.306563 -115.782165 182 27832ft 449kts
07-Sep-20 19:32 33.182701 -115.788539 183 26997ft 447kts
07-Sep-20 19:33 33.059213 -115.800805 183 24638ft 440kts
07-Sep-20 19:34 32.938890 -115.803374 178 22638ft 427kts
07-Sep-20 19:35 32.824294 -115.810069 201 22812ft 424kts
07-Sep-20 19:36 32.755458 -115.903109 262 21056ft 400kts
07-Sep-20 19:37 32.758718 -116.039852 270 15593ft 404kts
07-Sep-20 19:38 32.757000 -116.159697 266 12782ft 333kts
07-Sep-20 19:39 32.751402 -116.266118 265 11908ft 320kts
07-Sep-20 19:40 32.742453 -116.368112 265 10469ft 305kts
07-Sep-20 19:41 32.740116 -116.464168 268 8867ft 290kts
07-Sep-20 19:41 32.737988 -116.544795 268 7186ft 278kts
07-Sep-20 19:43 32.734982 -116.649398 267 5401ft 255kts
07-Sep-20 19:44 32.731673 -116.735034 268 5202ft 268kts
07-Sep-20 19:44 32.729970 -116.806579 267 5041ft 262kts
07-Sep-20 19:46 32.730994 -116.908004 270 4124ft 260kts
07-Sep-20 19:47 32.720984 -116.986461 250 3326ft 204kts
07-Sep-20 19:47 32.708597 -117.035040 255 2563ft 174kts
07-Sep-20 19:48 32.709397 -117.092488 284 1458ft 168kts
07-Sep-20 19:49 32.722877 -117.146304 286 754ft 173kts
07-Sep-20 19:50 32.735225 -117.196517 287 35ft 88kts
07-Sep-20 19:51 32.735485 -117.202168 160 32ft 0kts
07-Sep-20 19:52 32.734166 -117.203252 267 30ft 0kts
07-Sep-20 19:53 32.734166 -117.203253 267 30ft 0kts
07-Sep-20 19:54 32.734166 -117.203253 267 30ft 0kts
07-Sep-20 19:55 32.734166 -117.203253 267 30ft 0kts
07-Sep-20 19:56 32.734166 -117.203253 267 30ft 0kts
07-Sep-20 19:57 32.734166 -117.203253 267 30ft 0kts
07-Sep-20 19:58 32.734166 -117.203253 267 30ft 0kts
07-Sep-20 19:59 32.734166 -117.203253 267 30ft 0kts
07-Sep-20 20:00 32.734166 -117.203253 267 30ft 0kts
07-Sep-20 20:01 32.734166 -117.203253 267 30ft 0kts

Navigation Log

Ident Type
Flight plan parsing failed, navigation log unavailable